Time;durP1;ratioP1;P1;durP2;ratioP2;P2;SDS_P1;SDS_P2;PMS_P1;PMS_P2;Temp;Humidity;BMP_temperature;BMP_pressure;BME280_temperature;BME280_humidity;BME280_pressure;Samples;Min_cycle;Max_cycle;Signal;HPM_P1;HPM_P2
2022/08/30 00:02:08;;;;;;;2.17;1.30;;;;;;;18.84;47.64;99092.66;4901055;29;20056;-69
2022/08/30 00:04:34;;;;;;;1.30;1.05;;;;;;;18.83;47.91;99094.53;4917986;29;20126;-69
2022/08/30 00:07:02;;;;;;;3.65;1.83;;;;;;;18.84;47.74;99095.34;4900796;29;20055;-69
2022/08/30 00:09:31;;;;;;;1.48;1.38;;;;;;;18.83;47.91;99097.22;4917887;29;20063;-69
2022/08/30 00:11:58;;;;;;;2.15;1.70;;;;;;;18.80;48.03;99100.34;4894635;29;20068;-69
2022/08/30 00:14:26;;;;;;;1.95;1.33;;;;;;;18.75;48.61;99093.03;4900745;29;20076;-69
2022/08/30 00:16:53;;;;;;;1.60;1.38;;;;;;;18.71;48.62;99099.13;4900282;29;20532;-70
2022/08/30 00:19:19;;;;;;;2.33;1.50;;;;;;;18.65;48.76;99103.50;4917502;29;20048;-70
2022/08/30 00:21:46;;;;;;;1.80;1.60;;;;;;;18.57;49.00;99103.88;4917634;29;20056;-69
2022/08/30 00:24:12;;;;;;;2.45;1.30;;;;;;;18.50;49.34;99096.00;4917776;29;20055;-69
2022/08/30 00:26:39;;;;;;;1.42;1.30;;;;;;;18.50;49.64;99103.22;4900388;29;20115;-68
2022/08/30 00:29:05;;;;;;;1.25;1.00;;;;;;;18.46;49.39;99105.56;4900747;29;20055;-68
2022/08/30 00:31:32;;;;;;;1.40;1.17;;;;;;;18.45;49.63;99105.78;4917480;29;20408;-68
2022/08/30 00:33:58;;;;;;;1.77;1.30;;;;;;;18.45;49.37;99105.78;4917231;29;20412;-68
2022/08/30 00:36:26;;;;;;;2.47;1.60;;;;;;;18.43;49.32;99107.88;4916977;29;20044;-68
2022/08/30 00:38:53;;;;;;;1.33;1.23;;;;;;;18.37;48.94;99106.97;4917244;29;20054;-67
2022/08/30 00:41:19;;;;;;;1.77;1.27;;;;;;;18.33;49.50;99108.50;4913707;29;20048;-68
2022/08/30 00:43:46;;;;;;;1.95;1.40;;;;;;;18.30;49.60;99103.59;4912933;29;20040;-69
2022/08/30 00:46:13;;;;;;;0.98;0.98;;;;;;;18.28;49.81;99101.16;4900157;29;20485;-67
2022/08/30 00:48:43;;;;;;;1.38;1.10;;;;;;;18.26;49.97;99108.63;4916757;29;20055;-67
2022/08/30 00:51:13;;;;;;;1.55;1.35;;;;;;;18.26;50.10;99102.44;4914855;29;20047;-69
2022/08/30 00:53:42;;;;;;;1.30;1.10;;;;;;;18.25;50.47;99100.84;4916904;29;20428;-69
2022/08/30 00:56:12;;;;;;;1.42;1.33;;;;;;;18.25;50.58;99095.47;4916725;29;20365;-68
2022/08/30 00:58:42;;;;;;;1.20;1.10;;;;;;;18.21;50.39;99099.66;4915636;29;20380;-69
2022/08/30 01:01:10;;;;;;;2.00;1.52;;;;;;;18.14;50.51;99105.13;4899673;29;20052;-68
2022/08/30 01:03:38;;;;;;;1.77;1.20;;;;;;;18.10;50.73;99108.50;4916728;29;20048;-69
2022/08/30 01:06:06;;;;;;;2.72;1.65;;;;;;;18.05;50.81;99110.03;4916741;29;20048;-69
2022/08/30 01:08:33;;;;;;;1.88;1.02;;;;;;;18.01;51.30;99114.22;4916580;29;20501;-68
2022/08/30 01:11:02;;;;;;;2.25;1.27;;;;;;;18.00;50.96;99109.09;4899260;29;20125;-68
2022/08/30 01:13:30;;;;;;;1.63;1.38;;;;;;;17.98;51.31;99105.84;4911270;29;20110;-68
2022/08/30 01:16:01;;;;;;;2.80;1.60;;;;;;;17.94;51.28;99105.50;4916472;29;20251;-68
2022/08/30 01:18:30;;;;;;;2.13;1.60;;;;;;;17.90;51.24;99107.00;4899264;29;20059;-67
2022/08/30 01:21:17;;;;;;;1.63;1.33;;;;;;;17.80;51.45;99107.59;4916604;29;20113;-68
2022/08/30 01:23:49;;;;;;;1.40;1.30;;;;;;;17.74;51.54;99110.34;4916691;29;20488;-68
2022/08/30 01:26:16;;;;;;;1.75;1.38;;;;;;;17.71;51.87;99108.94;4916368;29;20048;-69
2022/08/30 01:28:53;;;;;;;1.95;1.38;;;;;;;17.65;51.48;99103.72;4899650;29;20052;-68
2022/08/30 01:31:20;;;;;;;1.92;1.30;;;;;;;17.63;51.63;99111.13;4916409;29;20082;-69
2022/08/30 01:33:46;;;;;;;1.23;0.88;;;;;;;17.65;51.96;99104.53;4916480;29;20044;-68
2022/08/30 01:36:14;;;;;;;1.20;1.10;;;;;;;17.70;51.99;99107.31;4899111;29;20052;-68
2022/08/30 01:38:46;;;;;;;1.20;1.10;;;;;;;17.73;51.34;99111.38;4916100;29;20054;-68
2022/08/30 01:41:18;;;;;;;1.13;1.00;;;;;;;17.71;51.77;99106.25;4913770;29;20416;-69
2022/08/30 01:43:45;;;;;;;1.00;1.00;;;;;;;17.72;51.70;99113.25;4896035;29;20062;-68
2022/08/30 01:46:14;;;;;;;1.10;0.93;;;;;;;17.68;51.29;99103.25;4914905;29;20050;-69
2022/08/30 01:48:41;;;;;;;1.08;0.98;;;;;;;17.56;51.88;99106.72;4916061;29;20541;-67
2022/08/30 01:51:17;;;;;;;1.27;1.17;;;;;;;17.54;52.10;99108.00;4914710;29;20044;-68
2022/08/30 01:53:44;;;;;;;1.30;1.20;;;;;;;17.50;52.26;99101.47;4916103;29;20055;-68
2022/08/30 01:56:12;;;;;;;1.42;1.30;;;;;;;17.41;52.02;99102.84;4899148;29;20075;-68
2022/08/30 01:58:39;;;;;;;1.98;1.60;;;;;;;17.33;52.73;99107.47;4915737;29;20048;-69
2022/08/30 02:01:11;;;;;;;1.00;0.90;;;;;;;17.33;52.62;99110.16;4899032;29;20051;-69
2022/08/30 02:03:39;;;;;;;1.65;1.25;;;;;;;17.31;52.46;99100.75;4900203;29;20126;-69
2022/08/30 02:06:09;;;;;;;2.30;1.30;;;;;;;17.29;52.65;99108.97;4915653;29;20131;-69
2022/08/30 02:08:37;;;;;;;2.58;1.20;;;;;;;17.28;52.87;99103.88;4916091;29;20058;-69
2022/08/30 02:11:05;;;;;;;2.13;1.40;;;;;;;17.23;52.71;99101.91;4914895;29;20076;-69
2022/08/30 02:13:32;;;;;;;1.77;1.45;;;;;;;17.21;52.99;99109.31;4912414;29;20044;-69
2022/08/30 02:15:59;;;;;;;1.20;1.10;;;;;;;17.21;52.92;99100.47;4916024;29;20060;-69
2022/08/30 02:18:26;;;;;;;4.97;4.30;;;;;;;17.22;53.15;99105.59;4915695;29;20052;-69
2022/08/30 02:20:53;;;;;;;4.78;3.78;;;;;;;17.22;52.49;99100.25;4914485;29;20060;-69
2022/08/30 02:23:19;;;;;;;3.15;2.47;;;;;;;17.20;52.99;99099.69;4899084;29;20058;-69
2022/08/30 02:25:46;;;;;;;3.45;2.22;;;;;;;17.15;53.13;99096.06;4899040;29;20044;-69
2022/08/30 02:28:14;;;;;;;2.38;1.60;;;;;;;17.11;53.52;99094.91;4915397;29;20540;-69
2022/08/30 02:30:44;;;;;;;1.42;1.30;;;;;;;17.10;53.99;99094.06;4914516;29;20135;-69
2022/08/30 02:33:11;;;;;;;1.40;1.30;;;;;;;17.10;53.40;99096.72;4914598;29;20048;-69
2022/08/30 02:35:38;;;;;;;1.52;1.10;;;;;;;17.09;53.79;99095.09;4915608;29;20085;-68
2022/08/30 02:38:04;;;;;;;2.25;1.90;;;;;;;17.09;53.58;99093.25;4914074;29;20048;-68
2022/08/30 02:40:31;;;;;;;1.98;1.77;;;;;;;17.01;53.64;99084.75;4915492;29;20044;-68
2022/08/30 02:42:57;;;;;;;1.88;1.67;;;;;;;16.93;54.14;99077.06;4909102;29;20044;-68
2022/08/30 02:45:24;;;;;;;1.70;1.60;;;;;;;16.92;54.30;99078.09;4915265;29;20044;-69
2022/08/30 02:47:51;;;;;;;1.88;1.70;;;;;;;16.92;53.92;99080.78;4915265;29;20040;-68
2022/08/30 02:50:18;;;;;;;3.00;2.05;;;;;;;16.91;54.08;99081.81;4915667;29;20051;-68
2022/08/30 02:52:45;;;;;;;2.80;1.63;;;;;;;16.90;54.01;99086.34;4898827;29;20040;-68
2022/08/30 02:55:15;;;;;;;1.50;1.40;;;;;;;16.88;54.11;99091.09;4899205;29;20096;-68
2022/08/30 02:57:43;;;;;;;3.80;1.70;;;;;;;16.84;54.12;99084.56;4915131;29;20493;-69
2022/08/30 03:00:12;;;;;;;2.17;1.98;;;;;;;16.79;54.08;99087.09;4898655;29;20139;-70
2022/08/30 03:02:40;;;;;;;3.10;2.10;;;;;;;16.71;54.75;99088.19;4915489;29;20048;-68
2022/08/30 03:05:08;;;;;;;2.65;2.13;;;;;;;16.63;54.43;99077.84;4915299;29;20419;-69
2022/08/30 03:07:35;;;;;;;2.60;2.10;;;;;;;16.55;54.67;99078.94;4913860;29;20052;-69
2022/08/30 03:10:02;;;;;;;5.00;2.20;;;;;;;16.54;54.66;99076.53;4915293;29;20506;-69
2022/08/30 03:12:28;;;;;;;2.17;1.95;;;;;;;16.51;54.39;99072.44;4891894;29;20408;-69
2022/08/30 03:14:56;;;;;;;2.70;2.30;;;;;;;16.45;54.08;99084.03;4901419;29;20686;-69
2022/08/30 03:17:23;;;;;;;2.55;2.17;;;;;;;16.41;54.11;99084.66;4918564;29;20044;-69
2022/08/30 03:19:50;;;;;;;3.03;2.28;;;;;;;16.39;53.83;99084.09;4901871;29;20044;-68
2022/08/30 03:22:17;;;;;;;2.05;1.85;;;;;;;16.37;53.91;99072.81;4918864;29;20062;-69
2022/08/30 03:24:44;;;;;;;3.40;2.00;;;;;;;16.35;53.81;99071.19;4903224;29;20052;-68
2022/08/30 03:27:11;;;;;;;2.38;1.95;;;;;;;16.34;53.93;99074.91;4922429;29;20135;-69
2022/08/30 03:29:38;;;;;;;1.80;1.60;;;;;;;16.32;54.15;99074.28;4920249;29;20040;-69
2022/08/30 03:32:05;;;;;;;2.28;1.60;;;;;;;16.32;54.51;99071.63;4901948;29;20576;-69
2022/08/30 03:34:31;;;;;;;1.88;1.50;;;;;;;16.29;54.17;99066.75;4902436;29;20052;-69
2022/08/30 03:37:00;;;;;;;1.80;1.70;;;;;;;16.22;54.80;99058.00;4918113;29;20048;-69
2022/08/30 03:39:26;;;;;;;1.40;1.30;;;;;;;16.21;54.87;99063.56;4918191;29;20056;-69
2022/08/30 03:41:53;;;;;;;2.53;1.83;;;;;;;16.23;54.75;99067.63;4911873;29;20045;-69
2022/08/30 03:44:20;;;;;;;1.40;1.20;;;;;;;16.28;54.71;99070.44;4901396;29;20059;-68
2022/08/30 03:46:47;;;;;;;1.45;1.20;;;;;;;16.33;54.57;99064.47;4918083;29;20122;-69
2022/08/30 03:49:14;;;;;;;1.25;1.15;;;;;;;16.36;54.91;99072.00;4901624;29;20500;-68
2022/08/30 03:51:41;;;;;;;1.70;1.60;;;;;;;16.37;54.70;99072.81;4918108;29;20044;-69
2022/08/30 03:54:08;;;;;;;2.97;2.22;;;;;;;16.33;54.73;99069.81;4918111;29;20122;-68
2022/08/30 03:56:35;;;;;;;3.05;2.45;;;;;;;16.29;55.12;99063.28;4917707;29;20043;-69
2022/08/30 03:59:02;;;;;;;2.88;2.40;;;;;;;16.19;55.21;99060.31;4917842;29;20051;-69
2022/08/30 04:01:28;;;;;;;1.95;1.73;;;;;;;16.10;56.03;99057.13;5366410;23;20043;-69
2022/08/30 04:03:55;;;;;;;2.78;2.00;;;;;;;16.08;55.42;99057.34;4935007;29;20052;-68
2022/08/30 04:06:22;;;;;;;2.92;2.17;;;;;;;16.00;55.59;99065.66;4936322;29;20039;-70
2022/08/30 04:08:49;;;;;;;2.50;2.10;;;;;;;15.95;56.02;99065.47;4936837;29;20040;-68
2022/08/30 04:11:15;;;;;;;2.17;1.90;;;;;;;15.95;55.88;99070.00;4903459;29;20043;-68
2022/08/30 04:13:43;;;;;;;3.03;2.15;;;;;;;15.97;55.79;99067.94;4936590;29;20050;-69
2022/08/30 04:16:09;;;;;;;2.38;1.80;;;;;;;15.97;55.80;99063.41;4936911;29;20054;-68
2022/08/30 04:18:36;;;;;;;2.17;1.67;;;;;;;15.95;56.11;99067.31;4919581;29;20059;-69
2022/08/30 04:21:03;;;;;;;1.65;1.55;;;;;;;15.98;56.25;99072.22;4936251;29;20122;-69
2022/08/30 04:23:30;;;;;;;2.45;1.92;;;;;;;15.98;55.76;99069.56;4936612;29;20048;-69
2022/08/30 04:25:56;;;;;;;2.95;1.60;;;;;;;15.97;56.02;99076.75;4937443;29;20051;-71
2022/08/30 04:28:23;;;;;;;2.25;1.83;;;;;;;15.93;56.27;99074.75;4937555;29;20409;-69
2022/08/30 04:30:49;;;;;;;1.88;1.50;;;;;;;15.93;56.43;99083.56;4921063;29;20047;-69
2022/08/30 04:33:16;;;;;;;1.90;1.70;;;;;;;15.96;56.48;99075.13;4942473;29;20039;-68
2022/08/30 04:35:47;;;;;;;2.30;2.10;;;;;;;15.98;56.34;99080.22;4949844;29;20118;-68
2022/08/30 04:38:15;;;;;;;2.50;2.22;;;;;;;15.95;56.08;99081.47;4956853;29;20415;-68
2022/08/30 04:40:49;;;;;;;2.25;2.00;;;;;;;15.90;56.39;99084.00;4938638;29;20043;-68
2022/08/30 04:43:16;;;;;;;1.98;1.63;;;;;;;15.85;56.57;99092.66;4955568;28;20078;-68
2022/08/30 04:45:42;;;;;;;2.00;1.80;;;;;;;15.87;56.79;99083.59;4937995;29;20507;-68
2022/08/30 04:48:09;;;;;;;2.45;1.85;;;;;;;15.82;56.71;99085.06;4954956;28;20050;-68
2022/08/30 04:50:36;;;;;;;2.63;1.70;;;;;;;15.76;56.74;99085.97;4955081;29;20039;-68
2022/08/30 04:53:10;;;;;;;2.08;1.80;;;;;;;15.75;56.86;99086.97;4955532;28;20155;-68
2022/08/30 04:55:39;;;;;;;2.08;1.75;;;;;;;15.80;57.33;99092.50;4938084;29;20071;-68
2022/08/30 04:58:06;;;;;;;2.78;1.45;;;;;;;15.87;56.92;99099.59;4937487;29;20062;-68
2022/08/30 05:00:32;;;;;;;1.70;1.60;;;;;;;15.90;56.82;99107.97;4937657;29;20069;-68
2022/08/30 05:02:59;;;;;;;1.67;1.45;;;;;;;15.89;56.93;99113.53;4947219;28;20052;-68
2022/08/30 05:05:38;;;;;;;3.75;2.08;;;;;;;15.82;56.95;99109.06;4933174;29;20044;-68
2022/08/30 05:08:11;;;;;;;1.90;1.70;;;;;;;15.76;56.74;99106.47;4936773;29;20488;-68
2022/08/30 05:10:45;;;;;;;2.83;2.20;;;;;;;15.75;57.04;99104.84;4919995;29;20051;-68
2022/08/30 05:13:12;;;;;;;2.53;2.10;;;;;;;15.76;56.78;99109.97;4903972;29;20052;-68
2022/08/30 05:15:39;;;;;;;2.17;1.85;;;;;;;15.77;57.03;99110.78;4919154;29;20054;-68
2022/08/30 05:18:07;;;;;;;1.70;1.60;;;;;;;15.80;57.27;99113.81;4902890;29;20571;-68
2022/08/30 05:20:38;;;;;;;2.33;1.80;;;;;;;15.90;56.75;99115.97;4918957;29;20075;-69
2022/08/30 05:23:05;;;;;;;2.35;2.00;;;;;;;15.97;56.65;99116.75;4918684;29;20048;-68
2022/08/30 05:25:36;;;;;;;3.85;2.25;;;;;;;16.02;56.60;99111.56;4937315;29;20159;-68
2022/08/30 05:28:03;;;;;;;2.33;1.85;;;;;;;16.07;56.13;99116.22;4939472;29;20052;-68
2022/08/30 05:30:32;;;;;;;2.72;2.30;;;;;;;16.13;56.18;99106.53;4921858;29;20106;-68
2022/08/30 05:32:59;;;;;;;2.28;2.08;;;;;;;16.16;55.82;99111.41;4925258;29;20059;-69
2022/08/30 05:35:26;;;;;;;2.22;1.90;;;;;;;16.21;55.97;99108.91;4943391;29;20043;-69
2022/08/30 05:37:53;;;;;;;2.13;1.85;;;;;;;16.29;56.27;99109.44;4917351;29;20047;-70
2022/08/30 05:40:20;;;;;;;3.17;2.20;;;;;;;16.37;55.65;99108.34;4936211;29;20070;-69
2022/08/30 05:42:47;;;;;;;2.63;1.95;;;;;;;16.46;55.70;99114.19;4904521;29;20047;-70
2022/08/30 05:45:14;;;;;;;2.40;1.98;;;;;;;16.52;55.07;99116.75;4920285;29;20056;-67
2022/08/30 05:47:40;;;;;;;2.53;2.03;;;;;;;16.58;54.82;99115.06;4936537;29;20048;-68
2022/08/30 05:50:08;;;;;;;4.38;2.25;;;;;;;16.63;54.52;99111.72;4936388;29;20499;-68
2022/08/30 05:52:41;;;;;;;2.00;1.80;;;;;;;16.66;54.74;99109.41;4919370;29;20139;-68
2022/08/30 05:55:08;;;;;;;1.48;1.38;;;;;;;16.69;54.58;99114.28;4936202;29;20406;-69
2022/08/30 05:57:37;;;;;;;2.20;1.83;;;;;;;16.75;54.61;99120.63;4934797;29;20470;-69
2022/08/30 06:00:09;;;;;;;2.13;1.63;;;;;;;16.87;54.11;99116.16;4934863;29;20388;-70
2022/08/30 06:02:39;;;;;;;1.70;1.60;;;;;;;17.00;53.91;99124.00;4934716;29;20121;-69
2022/08/30 06:05:07;;;;;;;2.17;1.90;;;;;;;17.08;53.61;99126.34;4945565;29;20039;-69
2022/08/30 06:07:33;;;;;;;2.42;1.70;;;;;;;17.17;53.96;99124.16;4953843;29;20043;-70
2022/08/30 06:10:01;;;;;;;2.85;2.10;;;;;;;17.28;53.52;99126.06;4954184;29;20043;-69
2022/08/30 06:12:27;;;;;;;3.60;2.40;;;;;;;17.34;53.34;99117.13;4953941;28;20046;-68
2022/08/30 06:14:54;;;;;;;2.30;1.90;;;;;;;17.42;53.40;99123.19;4953823;29;20043;-68
2022/08/30 06:17:20;;;;;;;1.67;1.48;;;;;;;17.57;53.52;99123.56;4936106;29;20567;-68
2022/08/30 06:19:47;;;;;;;2.05;1.58;;;;;;;17.73;53.06;99116.75;4953577;28;20090;-68
2022/08/30 06:22:13;;;;;;;2.92;2.22;;;;;;;17.87;52.49;99118.16;4953542;28;20043;-68
2022/08/30 06:24:40;;;;;;;2.47;1.50;;;;;;;18.00;52.02;99120.63;4936479;29;20051;-68
2022/08/30 06:27:22;;;;;;;2.55;1.80;;;;;;;18.14;50.92;99129.22;4936269;29;20057;-69
2022/08/30 06:29:52;;;;;;;2.45;1.67;;;;;;;18.26;51.40;99111.28;4953582;29;20057;-69
2022/08/30 06:32:19;;;;;;;3.25;1.75;;;;;;;18.42;50.87;99116.97;4949282;28;20059;-68
2022/08/30 06:34:47;;;;;;;1.75;1.60;;;;;;;18.55;50.82;99117.50;4925784;29;20094;-68
2022/08/30 06:37:14;;;;;;;2.47;1.10;;;;;;;18.69;50.41;99112.69;4953474;29;20126;-68
2022/08/30 06:39:56;;;;;;;1.85;1.20;;;;;;;18.81;50.39;99118.03;4953708;28;20105;-69
2022/08/30 06:42:29;;;;;;;1.70;1.60;;;;;;;18.94;49.94;99130.34;4936638;29;20097;-69
2022/08/30 06:44:57;;;;;;;1.98;1.70;;;;;;;19.06;49.34;99117.69;4936527;29;20051;-68
2022/08/30 06:47:24;;;;;;;3.33;1.70;;;;;;;19.18;48.82;99117.66;4936135;28;20043;-69
2022/08/30 06:49:51;;;;;;;3.13;2.03;;;;;;;19.25;48.36;99116.44;4955951;29;20043;-69
2022/08/30 06:52:18;;;;;;;1.90;1.30;;;;;;;19.33;48.39;99115.25;4939806;28;20039;-69
2022/08/30 06:54:44;;;;;;;3.05;2.17;;;;;;;19.43;47.76;99125.31;4957230;29;20047;-68
2022/08/30 06:57:11;;;;;;;3.85;2.38;;;;;;;19.50;47.47;99125.97;4939401;29;20075;-69
2022/08/30 06:59:38;;;;;;;3.97;1.85;;;;;;;19.58;47.47;99124.78;4957148;29;20110;-69
2022/08/30 07:02:06;;;;;;;3.67;1.83;;;;;;;19.65;47.46;99128.16;4936905;29;20050;-69
2022/08/30 07:04:33;;;;;;;4.80;2.70;;;;;;;19.72;47.15;99123.44;4945937;29;20055;-69
2022/08/30 07:07:00;;;;;;;3.20;2.35;;;;;;;19.80;47.21;99117.66;4955808;29;20521;-68
2022/08/30 07:09:27;;;;;;;2.85;2.30;;;;;;;19.89;46.89;99126.13;4923886;29;20074;-67
2022/08/30 07:11:54;;;;;;;4.32;2.55;;;;;;;19.97;46.65;99123.81;4956758;28;20392;-68
2022/08/30 07:14:21;;;;;;;4.53;2.28;;;;;;;20.04;46.51;99124.47;4939644;29;20051;-68
2022/08/30 07:16:47;;;;;;;2.80;1.92;;;;;;;20.12;46.75;99127.78;4939482;29;20063;-69
2022/08/30 07:19:18;;;;;;;5.35;2.10;;;;;;;20.21;46.42;99118.25;4956296;28;20050;-68
2022/08/30 07:21:47;;;;;;;1.67;1.17;;;;;;;20.34;46.30;99120.56;4956395;28;20043;-68
2022/08/30 07:24:15;;;;;;;2.25;1.20;;;;;;;20.45;46.28;99125.03;4956721;29;20082;-69
2022/08/30 07:26:47;;;;;;;0.98;0.98;;;;;;;20.59;45.86;99119.31;4939615;29;20086;-69
2022/08/30 07:29:15;;;;;;;1.10;1.00;;;;;;;20.69;45.79;99117.53;4939308;29;20055;-69
2022/08/30 07:31:42;;;;;;;2.22;1.70;;;;;;;20.83;45.36;99115.28;4956305;28;20046;-71
2022/08/30 07:34:09;;;;;;;2.22;1.95;;;;;;;20.97;45.13;99113.81;4928071;29;20133;-68
2022/08/30 07:36:37;;;;;;;2.88;1.67;;;;;;;21.10;44.91;99109.13;4951704;28;20053;-68
2022/08/30 07:39:05;;;;;;;2.40;1.67;;;;;;;21.21;44.47;99106.28;4939134;29;20062;-68
2022/08/30 07:41:37;;;;;;;3.58;1.95;;;;;;;21.30;44.10;99111.19;4955967;28;20061;-68
2022/08/30 07:44:08;;;;;;;2.10;1.80;;;;;;;21.35;44.14;99112.09;4938844;29;20058;-68
2022/08/30 07:46:36;;;;;;;4.88;2.08;;;;;;;21.43;43.56;99111.63;4956116;28;20051;-69
2022/08/30 07:49:03;;;;;;;2.83;2.10;;;;;;;21.53;43.68;99113.59;4939272;29;20043;-68
2022/08/30 07:51:36;;;;;;;2.58;1.80;;;;;;;21.66;43.35;99113.16;4956402;28;20055;-69
2022/08/30 07:54:03;;;;;;;3.28;2.00;;;;;;;21.82;42.99;99108.69;4939101;29;20082;-69
2022/08/30 07:56:30;;;;;;;3.78;1.80;;;;;;;21.97;42.81;99114.19;4956284;28;20414;-69
2022/08/30 07:58:56;;;;;;;2.47;2.00;;;;;;;22.11;42.34;99111.03;4956103;28;20488;-69
2022/08/30 08:01:23;;;;;;;2.58;1.92;;;;;;;22.15;42.11;99112.97;4938440;28;20495;-70
2022/08/30 08:03:50;;;;;;;2.78;1.90;;;;;;;22.20;41.83;99118.38;4939853;29;20130;-69
2022/08/30 08:06:19;;;;;;;3.17;1.90;;;;;;;22.23;41.67;99114.34;4931841;29;20047;-70
2022/08/30 08:08:47;;;;;;;3.88;1.80;;;;;;;22.27;41.75;99120.84;4938844;29;20058;-70
2022/08/30 08:11:25;;;;;;;2.70;1.95;;;;;;;22.36;41.52;99121.97;4938478;28;20055;-68
2022/08/30 08:13:58;;;;;;;4.32;1.85;;;;;;;22.46;41.68;99111.25;4956097;28;20492;-68
2022/08/30 08:16:27;;;;;;;2.95;1.90;;;;;;;22.57;41.25;99114.78;4955639;28;20054;-69
2022/08/30 08:18:54;;;;;;;2.15;1.70;;;;;;;22.65;41.00;99110.78;4938635;29;20074;-69
2022/08/30 08:21:22;;;;;;;2.45;1.73;;;;;;;22.72;41.10;99108.66;4955940;28;20043;-68
2022/08/30 08:23:50;;;;;;;2.55;1.80;;;;;;;22.82;40.83;99110.56;4956014;28;20089;-68
2022/08/30 08:26:17;;;;;;;2.13;1.60;;;;;;;22.93;40.88;99109.53;4955789;28;20043;-68
2022/08/30 08:28:45;;;;;;;4.57;2.17;;;;;;;23.05;40.61;99106.59;4938542;29;20123;-68
2022/08/30 08:31:24;;;;;;;3.17;2.20;;;;;;;23.08;40.29;99104.19;4955995;28;20068;-68
2022/08/30 08:33:58;;;;;;;2.83;1.98;;;;;;;23.12;40.36;99112.56;4929868;29;20071;-68
2022/08/30 08:36:29;;;;;;;2.95;1.92;;;;;;;23.16;40.09;99100.97;4933409;28;20047;-69
2022/08/30 08:38:55;;;;;;;4.32;1.95;;;;;;;23.25;39.93;99106.63;4938514;29;20054;-68
2022/08/30 08:41:44;;;;;;;3.08;2.00;;;;;;;23.26;40.09;99102.84;4955361;28;20039;-68
2022/08/30 08:44:30;;;;;;;3.42;1.80;;;;;;;23.28;40.27;99105.31;4955392;29;20047;-68
2022/08/30 08:47:39;;;;;;;2.88;2.05;;;;;;;23.34;39.94;99090.72;4923404;29;20127;-69
2022/08/30 08:50:16;;;;;;;2.97;1.70;;;;;;;23.42;39.72;99107.19;4955257;28;20082;-69
2022/08/30 08:56:16;;;;;;;4.32;1.80;;;;;;;23.70;39.58;99099.66;4955439;29;20043;-71
2022/08/30 08:58:50;;;;;;;2.03;1.45;;;;;;;23.88;39.43;99101.81;4955264;28;20058;-68
2022/08/30 09:01:19;;;;;;;1.65;1.55;;;;;;;23.98;39.06;99090.97;4937660;28;20391;-68
2022/08/30 09:03:47;;;;;;;1.88;1.75;;;;;;;24.08;38.96;99086.63;4937728;29;20408;-69
2022/08/30 09:06:43;;;;;;;2.53;2.15;;;;;;;24.16;38.72;99088.78;4947966;29;20051;-69
2022/08/30 09:09:12;;;;;;;3.15;2.30;;;;;;;24.23;38.79;99078.50;4955051;28;20426;-69
2022/08/30 09:11:40;;;;;;;2.50;1.60;;;;;;;24.33;38.53;99081.19;4936736;29;20043;-69
2022/08/30 09:14:16;;;;;;;2.97;2.22;;;;;;;24.44;38.26;99087.38;4955029;29;20043;-69
2022/08/30 09:16:56;;;;;;;2.40;2.00;;;;;;;24.53;38.15;99083.00;4937348;29;20086;-69
2022/08/30 09:19:32;;;;;;;2.88;1.90;;;;;;;24.67;37.92;99077.81;4937331;29;20089;-69
2022/08/30 09:22:11;;;;;;;2.53;1.85;;;;;;;24.80;37.55;99079.91;4954937;28;20058;-68
2022/08/30 09:24:44;;;;;;;2.47;2.10;;;;;;;24.91;37.51;99075.25;4937600;29;20070;-69
2022/08/30 09:27:20;;;;;;;4.07;2.00;;;;;;;24.99;37.23;99076.56;4954635;28;20074;-70
2022/08/30 09:29:53;;;;;;;2.63;1.70;;;;;;;25.16;37.44;99064.28;4954594;29;20054;-69
2022/08/30 09:32:29;;;;;;;2.85;2.00;;;;;;;25.37;37.06;99064.13;4949782;28;20062;-68
2022/08/30 09:34:57;;;;;;;2.00;1.80;;;;;;;25.42;36.56;99061.38;4945241;29;20130;-69
2022/08/30 09:37:28;;;;;;;4.35;2.17;;;;;;;25.52;36.54;99061.28;4954891;29;20094;-69
2022/08/30 09:39:55;;;;;;;4.13;2.08;;;;;;;25.63;36.67;99059.28;4939506;29;20048;-68
2022/08/30 09:42:25;;;;;;;5.15;2.00;;;;;;;25.78;36.43;99058.38;4937532;29;20051;-69
2022/08/30 09:44:52;;;;;;;4.88;2.30;;;;;;;25.87;36.26;99064.75;4955091;29;20062;-69
2022/08/30 09:47:26;;;;;;;3.38;2.13;;;;;;;25.93;35.95;99059.03;4939934;28;20055;-69
2022/08/30 09:50:17;;;;;;;2.83;2.30;;;;;;;25.96;35.91;99054.09;4964676;29;20054;-68
2022/08/30 09:52:56;;;;;;;3.08;2.17;;;;;;;26.03;35.82;99052.66;4957080;28;20086;-70
2022/08/30 09:55:55;;;;;;;4.03;2.30;;;;;;;26.09;35.81;99051.53;4955308;28;20051;-68
2022/08/30 09:58:44;;;;;;;2.70;1.90;;;;;;;26.15;35.59;99044.94;4916182;29;20047;-69
2022/08/30 10:01:19;;;;;;;4.10;2.20;;;;;;;26.24;35.83;99041.59;4954271;28;20071;-69
2022/08/30 10:04:18;;;;;;;4.05;2.25;;;;;;;26.32;35.21;99036.34;4929130;28;20039;-68
2022/08/30 10:06:53;;;;;;;3.08;2.22;;;;;;;26.42;34.69;99032.72;4934052;29;20420;-68
2022/08/30 10:09:44;;;;;;;2.40;2.20;;;;;;;26.50;35.15;99023.97;4954436;29;20058;-68
2022/08/30 10:12:38;;;;;;;4.80;2.55;;;;;;;26.55;34.57;99025.78;4954066;28;20047;-68
2022/08/30 10:15:16;;;;;;;4.30;2.38;;;;;;;26.68;35.19;99020.44;4950766;23;20044;-66
2022/08/30 10:18:04;;;;;;;2.28;1.92;;;;;;;26.81;34.95;99026.22;4912854;29;20048;-66
2022/08/30 10:21:02;;;;;;;4.13;2.38;;;;;;;26.86;34.18;99020.72;4934653;29;20059;-66
2022/08/30 10:23:39;;;;;;;4.07;2.75;;;;;;;26.95;34.28;99018.16;4920367;29;20483;-66
2022/08/30 10:26:21;;;;;;;4.05;2.72;;;;;;;27.01;34.13;99014.25;4921934;29;20138;-66
2022/08/30 10:28:57;;;;;;;3.20;2.50;;;;;;;27.06;34.73;99014.97;4938957;29;20048;-66
2022/08/30 10:31:27;;;;;;;2.97;2.67;;;;;;;27.17;34.67;99011.03;4906027;29;20151;-66
2022/08/30 10:34:01;;;;;;;3.33;2.63;;;;;;;27.29;34.68;99009.78;4913750;29;20048;-66
2022/08/30 10:36:38;;;;;;;2.72;2.05;;;;;;;27.42;34.49;99007.06;4952050;28;20099;-66
2022/08/30 10:39:09;;;;;;;2.90;2.63;;;;;;;27.53;34.07;99009.63;4957904;29;20043;-66
2022/08/30 10:41:48;;;;;;;2.75;2.28;;;;;;;27.63;33.88;99010.22;4940159;29;20055;-66
2022/08/30 10:44:27;;;;;;;3.47;2.20;;;;;;;27.76;34.05;99011.41;4957712;28;20051;-66
2022/08/30 10:47:23;;;;;;;3.22;2.60;;;;;;;27.80;32.93;99015.13;4957350;28;20134;-66
2022/08/30 10:50:00;;;;;;;3.25;2.90;;;;;;;27.80;33.58;98995.28;4957389;28;20094;-66
2022/08/30 10:52:46;;;;;;;2.70;2.50;;;;;;;27.87;33.28;99003.84;4957395;29;20146;-66
2022/08/30 10:55:20;;;;;;;2.35;2.10;;;;;;;27.84;32.97;99004.44;4940015;29;20059;-66
2022/08/30 10:57:48;;;;;;;2.88;2.60;;;;;;;27.88;33.45;99005.44;4939682;29;20578;-66
2022/08/30 11:00:36;;;;;;;2.85;2.53;;;;;;;27.93;33.33;98999.94;4957186;29;20566;-67
2022/08/30 11:03:24;;;;;;;2.30;2.10;;;;;;;28.10;33.40;99000.13;4949318;29;20043;-67
2022/08/30 11:06:02;;;;;;;3.80;2.50;;;;;;;28.15;32.88;98982.91;4931911;29;20059;-67
2022/08/30 11:08:35;;;;;;;3.45;2.60;;;;;;;28.23;33.17;98992.25;4924227;29;20047;-67
2022/08/30 11:11:16;;;;;;;2.90;2.60;;;;;;;28.35;32.71;99001.50;4957101;28;20043;-67
2022/08/30 11:13:44;;;;;;;3.42;2.15;;;;;;;28.53;32.64;98988.88;4957215;29;20483;-65
2022/08/30 11:16:14;;;;;;;2.55;2.25;;;;;;;28.74;32.57;98991.97;4956486;28;20054;-65
2022/08/30 11:18:48;;;;;;;4.25;2.70;;;;;;;28.74;31.65;98985.69;4923913;29;20051;-66
2022/08/30 11:21:30;;;;;;;3.10;2.63;;;;;;;28.58;32.35;98985.28;4940096;29;20051;-65
2022/08/30 11:24:13;;;;;;;3.17;2.72;;;;;;;28.32;32.33;98988.50;4923748;29;20073;-65
2022/08/30 11:26:49;;;;;;;;;;;;;;;28.30;32.13;98985.31;4939623;29;20051;-65
2022/08/30 11:29:28;;;;;;;2.90;2.60;;;;;;;28.35;32.60;98977.03;4939709;29;20028;-65
2022/08/30 11:32:17;;;;;;;3.15;2.60;;;;;;;28.46;32.93;98980.38;4955107;28;20047;-65
2022/08/30 11:34:44;;;;;;;2.63;2.25;;;;;;;28.58;32.40;98980.63;4921268;29;20047;-66
2022/08/30 11:37:29;;;;;;;3.83;2.88;;;;;;;28.67;32.14;98977.19;4957170;29;20047;-65
2022/08/30 11:40:00;;;;;;;2.80;2.55;;;;;;;28.78;32.40;98983.97;4940501;29;20054;-65
2022/08/30 11:42:40;;;;;;;2.88;2.67;;;;;;;28.88;32.22;98983.75;4939761;29;20047;-65
2022/08/30 11:45:42;;;;;;;2.80;2.50;;;;;;;29.02;31.99;98978.25;4940250;29;20571;-66
2022/08/30 11:48:40;;;;;;;3.63;2.80;;;;;;;29.09;31.29;98975.91;4952107;28;20059;-66
2022/08/30 11:51:43;;;;;;;2.30;2.10;;;;;;;29.15;31.39;98980.13;4926009;29;20109;-65
2022/08/30 11:54:35;;;;;;;2.95;2.65;;;;;;;29.10;31.52;98978.31;4940045;29;20050;-66
2022/08/30 11:57:30;;;;;;;2.50;2.30;;;;;;;29.01;31.19;98966.56;4939201;29;20051;-66